SHU5607 UHSS-UHWW
Flight info
| Callsign | SHU5607 |
|---|---|
| Flight time | 1h 33m |
| Altitude | 36000 |
| Route | N0480F360 KENOM B919 TIMIT R810 RUNUK W907 BALET B355 BG G714 DAGES |
| Aircraft | A319/M-SDE3FGHIRWY/LB1 |
Departure
| Time | 2026-04-25 15:02 |
|---|---|
| Airport | Yuzhno-Sakhalinsk International Airport (UHSS) |
Arrival
| Time | 2026-04-25 16:35 |
|---|---|
| Airport | Vladivostok International Airport (UHWW) |
| Time | Latitude | Longitude | Altitude | Speed | Heading |
|---|---|---|---|---|---|
| 2026-04-25 14:26 | 46.88859 | 142.72246 | 80 ft | 0 kts | 93° |
| 2026-04-25 14:54 | 46.88860 | 142.72221 | 84 ft | 4 kts | 91° |
| 2026-04-25 14:54 | 46.88860 | 142.72189 | 81 ft | 3 kts | 92° |
| 2026-04-25 14:54 | 46.88862 | 142.72161 | 82 ft | 0 kts | 102° |
| 2026-04-25 14:55 | 46.88862 | 142.72158 | 82 ft | 2 kts | 102° |
| 2026-04-25 14:55 | 46.88861 | 142.72135 | 82 ft | 2 kts | 65° |
| 2026-04-25 14:55 | 46.88851 | 142.72116 | 82 ft | 2 kts | 29° |
| 2026-04-25 14:56 | 46.88836 | 142.72107 | 84 ft | 2 kts | 12° |
| 2026-04-25 14:56 | 46.88823 | 142.72104 | 82 ft | 1 kts | 3° |
| 2026-04-25 14:56 | 46.88821 | 142.72103 | 82 ft | 0 kts | 2° |
| 2026-04-25 14:58 | 46.88832 | 142.72104 | 82 ft | 4 kts | 2° |
| 2026-04-25 14:58 | 46.88878 | 142.72107 | 83 ft | 10 kts | 2° |
| 2026-04-25 14:59 | 46.88963 | 142.72087 | 82 ft | 16 kts | 333° |
| 2026-04-25 14:59 | 46.89061 | 142.71984 | 79 ft | 18 kts | 310° |
| 2026-04-25 14:59 | 46.89085 | 142.71823 | 82 ft | 16 kts | 272° |
| 2026-04-25 14:59 | 46.89176 | 142.71759 | 84 ft | 19 kts | 2° |
| 2026-04-25 15:00 | 46.89357 | 142.71764 | 86 ft | 33 kts | 0° |
| 2026-04-25 15:00 | 46.89642 | 142.71771 | 84 ft | 48 kts | 1° |
| 2026-04-25 15:00 | 46.89956 | 142.71780 | 71 ft | 32 kts | 4° |
| 2026-04-25 15:00 | 46.90031 | 142.71826 | 84 ft | 9 kts | 10° |
| 2026-04-25 15:01 | 46.90032 | 142.71783 | 85 ft | 7 kts | 204° |
| 2026-04-25 15:01 | 46.89978 | 142.71777 | 73 ft | 10 kts | 180° |
| 2026-04-25 15:01 | 46.89756 | 142.71773 | 82 ft | 67 kts | 181° |
| 2026-04-25 15:01 | 46.89057 | 142.71757 | 87 ft | 132 kts | 181° |
| 2026-04-25 15:02 | 46.87984 | 142.71720 | 271 ft | 165 kts | 181° |
| 2026-04-25 15:02 | 46.86831 | 142.71673 | 926 ft | 167 kts | 182° |
| 2026-04-25 15:02 | 46.85678 | 142.71392 | 1712 ft | 168 kts | 198° |
| 2026-04-25 15:02 | 46.84561 | 142.70764 | 2240 ft | 182 kts | 211° |
| 2026-04-25 15:03 | 46.83419 | 142.69686 | 2633 ft | 208 kts | 222° |
| 2026-04-25 15:03 | 46.82380 | 142.68092 | 3240 ft | 225 kts | 236° |
| 2026-04-25 15:03 | 46.81642 | 142.66073 | 4107 ft | 232 kts | 249° |
| 2026-04-25 15:03 | 46.81269 | 142.63727 | 5082 ft | 237 kts | 265° |
| 2026-04-25 15:04 | 46.81339 | 142.61316 | 6023 ft | 243 kts | 280° |
| 2026-04-25 15:04 | 46.81880 | 142.58962 | 7000 ft | 247 kts | 295° |
| 2026-04-25 15:04 | 46.82679 | 142.56734 | 7940 ft | 249 kts | 292° |
| 2026-04-25 15:04 | 46.83296 | 142.54373 | 8891 ft | 250 kts | 284° |
| 2026-04-25 15:05 | 46.83697 | 142.51901 | 9853 ft | 250 kts | 277° |
| 2026-04-25 15:05 | 46.83875 | 142.49378 | 10715 ft | 250 kts | 270° |
| 2026-04-25 15:05 | 46.83882 | 142.46813 | 11386 ft | 261 kts | 269° |
| 2026-04-25 15:06 | 46.83913 | 142.41082 | 12173 ft | 295 kts | 270° |
| 2026-04-25 15:06 | 46.83939 | 142.38075 | 13032 ft | 296 kts | 270° |
| 2026-04-25 15:06 | 46.83966 | 142.35066 | 13829 ft | 296 kts | 270° |
| 2026-04-25 15:06 | 46.83991 | 142.32069 | 14027 ft | 293 kts | 270° |
| 2026-04-25 15:07 | 46.84015 | 142.29111 | 14071 ft | 291 kts | 269° |
| 2026-04-25 15:07 | 46.84037 | 142.26155 | 14080 ft | 290 kts | 269° |
| 2026-04-25 15:07 | 46.84056 | 142.23201 | 14069 ft | 290 kts | 269° |
| 2026-04-25 15:07 | 46.84071 | 142.20263 | 14071 ft | 290 kts | 269° |
| 2026-04-25 15:08 | 46.84083 | 142.17319 | 14069 ft | 290 kts | 269° |
| 2026-04-25 15:08 | 46.84096 | 142.14375 | 14067 ft | 290 kts | 269° |
| 2026-04-25 15:08 | 46.84110 | 142.11416 | 14237 ft | 294 kts | 269° |
| 2026-04-25 15:08 | 46.84124 | 142.08464 | 14976 ft | 296 kts | 269° |
| 2026-04-25 15:09 | 46.84100 | 142.05454 | 15722 ft | 297 kts | 267° |
| 2026-04-25 15:09 | 46.83992 | 142.02434 | 16481 ft | 299 kts | 266° |
| 2026-04-25 15:09 | 46.83679 | 141.96334 | 17869 ft | 303 kts | 266° |
| 2026-04-25 15:10 | 46.83570 | 141.94282 | 18359 ft | 304 kts | 266° |
| 2026-04-25 15:10 | 46.83357 | 141.90142 | 19169 ft | 307 kts | 267° |
| 2026-04-25 15:10 | 46.83062 | 141.83838 | 20356 ft | 315 kts | 267° |
| 2026-04-25 15:11 | 46.82916 | 141.80678 | 20933 ft | 318 kts | 267° |
| 2026-04-25 15:11 | 46.82761 | 141.77438 | 21476 ft | 320 kts | 267° |
| 2026-04-25 15:11 | 46.82601 | 141.74211 | 21945 ft | 320 kts | 266° |
| 2026-04-25 15:12 | 46.82283 | 141.67647 | 22838 ft | 326 kts | 267° |
| 2026-04-25 15:12 | 46.82123 | 141.64322 | 23278 ft | 331 kts | 267° |
| 2026-04-25 15:12 | 46.81965 | 141.60962 | 23739 ft | 333 kts | 267° |
| 2026-04-25 15:12 | 46.81911 | 141.59823 | 23874 ft | 335 kts | 267° |
| 2026-04-25 15:13 | 46.81638 | 141.54148 | 24602 ft | 338 kts | 267° |
| 2026-04-25 15:13 | 46.81303 | 141.47272 | 25394 ft | 339 kts | 268° |
| 2026-04-25 15:13 | 46.81137 | 141.43807 | 25765 ft | 343 kts | 267° |
| 2026-04-25 15:14 | 46.80965 | 141.40325 | 26164 ft | 345 kts | 268° |
| 2026-04-25 15:14 | 46.80789 | 141.36826 | 26560 ft | 347 kts | 268° |
| 2026-04-25 15:14 | 46.80604 | 141.33295 | 26966 ft | 349 kts | 267° |
| 2026-04-25 15:14 | 46.80419 | 141.29801 | 27290 ft | 352 kts | 267° |
| 2026-04-25 15:15 | 46.80235 | 141.26236 | 27653 ft | 352 kts | 268° |
| 2026-04-25 15:15 | 46.80053 | 141.22649 | 27998 ft | 357 kts | 268° |
| 2026-04-25 15:15 | 46.79862 | 141.19017 | 28385 ft | 357 kts | 268° |
| 2026-04-25 15:15 | 46.79669 | 141.15393 | 28721 ft | 359 kts | 268° |
| 2026-04-25 15:16 | 46.79476 | 141.11746 | 29062 ft | 362 kts | 268° |
| 2026-04-25 15:16 | 46.79280 | 141.08075 | 29403 ft | 364 kts | 268° |
| 2026-04-25 15:16 | 46.78880 | 141.00671 | 30093 ft | 368 kts | 268° |
| 2026-04-25 15:17 | 46.78481 | 140.93192 | 30780 ft | 368 kts | 268° |
| 2026-04-25 15:17 | 46.78283 | 140.89474 | 31173 ft | 367 kts | 268° |
| 2026-04-25 15:17 | 46.78083 | 140.85772 | 31557 ft | 367 kts | 268° |
| 2026-04-25 15:18 | 46.77878 | 140.82062 | 31946 ft | 366 kts | 268° |
| 2026-04-25 15:18 | 46.77467 | 140.74679 | 32719 ft | 364 kts | 268° |
| 2026-04-25 15:18 | 46.77260 | 140.71006 | 33096 ft | 364 kts | 268° |
| 2026-04-25 15:19 | 46.77052 | 140.67329 | 33486 ft | 363 kts | 268° |
| 2026-04-25 15:19 | 46.76985 | 140.66143 | 33612 ft | 363 kts | 269° |
| 2026-04-25 15:19 | 46.76632 | 140.60011 | 34225 ft | 362 kts | 268° |
| 2026-04-25 15:19 | 46.76420 | 140.56350 | 34513 ft | 362 kts | 268° |
| 2026-04-25 15:20 | 46.76208 | 140.52720 | 34778 ft | 364 kts | 268° |
| 2026-04-25 15:20 | 46.75991 | 140.48999 | 35022 ft | 365 kts | 268° |
| 2026-04-25 15:20 | 46.75779 | 140.45347 | 35252 ft | 366 kts | 268° |
| 2026-04-25 15:20 | 46.75563 | 140.41630 | 35491 ft | 368 kts | 268° |
| 2026-04-25 15:21 | 46.75344 | 140.37909 | 35712 ft | 369 kts | 267° |
| 2026-04-25 15:21 | 46.75123 | 140.34169 | 35912 ft | 370 kts | 267° |
| 2026-04-25 15:21 | 46.74669 | 140.26673 | 36023 ft | 372 kts | 267° |
| 2026-04-25 15:22 | 46.74285 | 140.20433 | 36025 ft | 372 kts | 267° |
| 2026-04-25 15:22 | 46.73823 | 140.12905 | 36019 ft | 372 kts | 267° |
| 2026-04-25 15:23 | 46.73292 | 140.05409 | 36019 ft | 372 kts | 266° |
| 2026-04-25 15:23 | 46.72709 | 139.97917 | 36005 ft | 372 kts | 266° |
| 2026-04-25 15:24 | 46.72154 | 139.90412 | 36017 ft | 372 kts | 266° |
| 2026-04-25 15:24 | 46.71710 | 139.84184 | 36009 ft | 372 kts | 266° |
| 2026-04-25 15:25 | 46.71081 | 139.75416 | 36001 ft | 372 kts | 266° |
| 2026-04-25 15:25 | 46.70532 | 139.67974 | 36007 ft | 372 kts | 266° |
| 2026-04-25 15:26 | 46.69966 | 139.60468 | 36014 ft | 372 kts | 266° |
| 2026-04-25 15:26 | 46.69399 | 139.52960 | 36012 ft | 373 kts | 266° |
| 2026-04-25 15:27 | 46.68837 | 139.45470 | 36013 ft | 373 kts | 266° |
| 2026-04-25 15:28 | 46.67978 | 139.34199 | 36002 ft | 373 kts | 265° |
| 2026-04-25 15:28 | 46.67404 | 139.26694 | 36004 ft | 373 kts | 265° |
| 2026-04-25 15:29 | 46.66830 | 139.19188 | 36002 ft | 373 kts | 265° |
| 2026-04-25 15:29 | 46.66250 | 139.11684 | 36002 ft | 373 kts | 265° |
| 2026-04-25 15:30 | 46.65667 | 139.04226 | 36020 ft | 373 kts | 265° |
| 2026-04-25 15:30 | 46.65074 | 138.96720 | 36019 ft | 373 kts | 265° |
| 2026-04-25 15:31 | 46.64477 | 138.89236 | 36007 ft | 373 kts | 265° |
| 2026-04-25 15:31 | 46.63875 | 138.81721 | 36011 ft | 373 kts | 265° |
| 2026-04-25 15:32 | 46.63273 | 138.74238 | 36010 ft | 373 kts | 265° |
| 2026-04-25 15:32 | 46.62657 | 138.66744 | 36008 ft | 372 kts | 265° |
| 2026-04-25 15:33 | 46.60857 | 138.55711 | 35987 ft | 375 kts | 258° |
| 2026-04-25 15:33 | 46.59545 | 138.48381 | 35986 ft | 375 kts | 258° |
| 2026-04-25 15:34 | 46.58234 | 138.41039 | 35992 ft | 374 kts | 258° |
| 2026-04-25 15:34 | 46.57141 | 138.34939 | 35996 ft | 375 kts | 258° |
| 2026-04-25 15:35 | 46.54934 | 138.22759 | 36025 ft | 375 kts | 258° |
| 2026-04-25 15:36 | 46.52940 | 138.11794 | 36021 ft | 374 kts | 258° |
| 2026-04-25 15:36 | 46.51608 | 138.04483 | 35982 ft | 375 kts | 258° |
| 2026-04-25 15:37 | 46.50260 | 137.97171 | 35988 ft | 375 kts | 257° |
| 2026-04-25 15:37 | 46.48903 | 137.89848 | 35992 ft | 376 kts | 257° |
| 2026-04-25 15:38 | 46.47537 | 137.82525 | 36004 ft | 376 kts | 257° |
| 2026-04-25 15:38 | 46.46168 | 137.75209 | 36005 ft | 376 kts | 257° |
| 2026-04-25 15:39 | 46.44791 | 137.67881 | 35988 ft | 376 kts | 257° |
| 2026-04-25 15:39 | 46.43410 | 137.60549 | 35992 ft | 376 kts | 257° |
| 2026-04-25 15:40 | 46.42494 | 137.55699 | 35998 ft | 377 kts | 257° |
| 2026-04-25 15:40 | 46.40638 | 137.45903 | 36003 ft | 377 kts | 257° |
| 2026-04-25 15:41 | 46.39256 | 137.38644 | 36006 ft | 377 kts | 257° |
| 2026-04-25 15:41 | 46.37854 | 137.31317 | 36006 ft | 377 kts | 257° |
| 2026-04-25 15:42 | 46.36128 | 137.24144 | 36002 ft | 382 kts | 246° |
| 2026-04-25 15:42 | 46.33255 | 137.17617 | 36005 ft | 384 kts | 242° |
| 2026-04-25 15:43 | 46.30342 | 137.11135 | 36009 ft | 384 kts | 242° |
| 2026-04-25 15:43 | 46.27426 | 137.04651 | 36009 ft | 384 kts | 242° |
| 2026-04-25 15:44 | 46.24511 | 136.98184 | 36011 ft | 384 kts | 242° |
| 2026-04-25 15:44 | 46.21595 | 136.91721 | 35989 ft | 384 kts | 242° |
| 2026-04-25 15:45 | 46.18675 | 136.85269 | 36021 ft | 384 kts | 241° |
| 2026-04-25 15:45 | 46.16737 | 136.81003 | 36017 ft | 383 kts | 241° |
| 2026-04-25 15:46 | 46.12819 | 136.72409 | 36000 ft | 383 kts | 241° |
| 2026-04-25 15:46 | 46.09889 | 136.65991 | 36000 ft | 383 kts | 241° |
| 2026-04-25 15:47 | 46.06966 | 136.59586 | 35999 ft | 383 kts | 241° |
| 2026-04-25 15:47 | 46.04053 | 136.53235 | 35992 ft | 382 kts | 241° |
| 2026-04-25 15:48 | 46.01109 | 136.46842 | 35991 ft | 383 kts | 241° |
| 2026-04-25 15:48 | 45.98169 | 136.40459 | 35990 ft | 383 kts | 241° |
| 2026-04-25 15:49 | 45.95226 | 136.34077 | 35974 ft | 383 kts | 241° |
| 2026-04-25 15:49 | 45.92281 | 136.27703 | 35980 ft | 383 kts | 241° |
| 2026-04-25 15:50 | 45.89327 | 136.21319 | 35989 ft | 384 kts | 241° |
| 2026-04-25 15:50 | 45.86359 | 136.14940 | 35993 ft | 384 kts | 241° |
| 2026-04-25 15:51 | 45.84399 | 136.10722 | 35999 ft | 384 kts | 241° |
| 2026-04-25 15:51 | 45.80437 | 136.02242 | 35985 ft | 384 kts | 240° |
| 2026-04-25 15:52 | 45.77462 | 135.95877 | 35988 ft | 384 kts | 240° |
| 2026-04-25 15:52 | 45.74489 | 135.89527 | 35984 ft | 384 kts | 240° |
| 2026-04-25 15:53 | 45.71497 | 135.83173 | 35986 ft | 384 kts | 240° |
| 2026-04-25 15:53 | 45.68502 | 135.76818 | 35956 ft | 385 kts | 240° |
| 2026-04-25 15:54 | 45.65510 | 135.70476 | 35967 ft | 385 kts | 240° |
| 2026-04-25 15:54 | 45.62514 | 135.64140 | 35970 ft | 385 kts | 240° |
| 2026-04-25 15:55 | 45.59511 | 135.57829 | 35974 ft | 384 kts | 240° |
| 2026-04-25 15:55 | 45.56511 | 135.51522 | 35964 ft | 384 kts | 240° |
| 2026-04-25 15:56 | 45.53510 | 135.45221 | 35959 ft | 384 kts | 240° |
| 2026-04-25 15:56 | 45.50530 | 135.38970 | 35968 ft | 384 kts | 240° |
| 2026-04-25 15:57 | 45.47505 | 135.32643 | 35968 ft | 383 kts | 240° |
| 2026-04-25 15:57 | 45.44523 | 135.26406 | 35966 ft | 383 kts | 240° |
| 2026-04-25 15:58 | 45.41508 | 135.20133 | 35935 ft | 383 kts | 240° |
| 2026-04-25 15:58 | 45.38487 | 135.13886 | 35944 ft | 383 kts | 239° |
| 2026-04-25 15:59 | 45.35475 | 135.07638 | 35946 ft | 383 kts | 240° |
| 2026-04-25 15:59 | 45.32460 | 135.01389 | 35942 ft | 383 kts | 240° |
| 2026-04-25 16:00 | 45.30445 | 134.97224 | 35943 ft | 383 kts | 239° |
| 2026-04-25 16:00 | 45.26403 | 134.88933 | 35938 ft | 383 kts | 239° |
| 2026-04-25 16:01 | 45.23373 | 134.82707 | 35942 ft | 383 kts | 239° |
| 2026-04-25 16:01 | 45.20343 | 134.76500 | 35942 ft | 383 kts | 239° |
| 2026-04-25 16:02 | 45.17322 | 134.70345 | 35937 ft | 383 kts | 239° |
| 2026-04-25 16:02 | 45.14775 | 134.65155 | 35919 ft | 383 kts | 239° |
| 2026-04-25 16:03 | 45.11742 | 134.58965 | 35920 ft | 382 kts | 239° |
| 2026-04-25 16:03 | 45.08224 | 134.51766 | 35925 ft | 383 kts | 239° |
| 2026-04-25 16:04 | 45.05673 | 134.46584 | 35924 ft | 383 kts | 239° |
| 2026-04-25 16:04 | 45.02613 | 134.40407 | 35909 ft | 383 kts | 239° |
| 2026-04-25 16:05 | 44.99564 | 134.34268 | 35914 ft | 384 kts | 239° |
| 2026-04-25 16:06 | 44.94950 | 134.24999 | 35922 ft | 385 kts | 239° |
| 2026-04-25 16:06 | 44.91867 | 134.18800 | 35917 ft | 385 kts | 239° |
| 2026-04-25 16:07 | 44.88811 | 134.12655 | 35910 ft | 385 kts | 239° |
| 2026-04-25 16:07 | 44.85721 | 134.06465 | 35919 ft | 385 kts | 239° |
| 2026-04-25 16:08 | 44.82053 | 134.00878 | 35908 ft | 396 kts | 223° |
| 2026-04-25 16:08 | 44.77287 | 133.96805 | 35908 ft | 402 kts | 217° |
| 2026-04-25 16:09 | 44.72434 | 133.92842 | 35763 ft | 405 kts | 217° |
| 2026-04-25 16:09 | 44.70028 | 133.90866 | 35507 ft | 404 kts | 217° |
| 2026-04-25 16:09 | 44.67601 | 133.88881 | 35255 ft | 404 kts | 217° |
| 2026-04-25 16:09 | 44.65166 | 133.86894 | 35007 ft | 404 kts | 217° |
| 2026-04-25 16:10 | 44.62743 | 133.84922 | 34761 ft | 404 kts | 217° |
| 2026-04-25 16:10 | 44.60312 | 133.82946 | 34512 ft | 403 kts | 217° |
| 2026-04-25 16:10 | 44.57877 | 133.80974 | 34263 ft | 403 kts | 217° |
| 2026-04-25 16:10 | 44.55446 | 133.79009 | 34024 ft | 403 kts | 217° |
| 2026-04-25 16:11 | 44.53018 | 133.77044 | 33736 ft | 403 kts | 217° |
| 2026-04-25 16:11 | 44.50585 | 133.75065 | 32848 ft | 406 kts | 217° |
| 2026-04-25 16:11 | 44.48144 | 133.73079 | 31938 ft | 408 kts | 217° |
| 2026-04-25 16:11 | 44.45681 | 133.71081 | 31028 ft | 410 kts | 217° |
| 2026-04-25 16:12 | 44.43194 | 133.69070 | 30070 ft | 413 kts | 217° |
| 2026-04-25 16:12 | 44.40695 | 133.67051 | 29074 ft | 414 kts | 217° |
| 2026-04-25 16:12 | 44.38234 | 133.65071 | 28641 ft | 403 kts | 217° |
| 2026-04-25 16:12 | 44.36625 | 133.63785 | 28229 ft | 399 kts | 217° |
| 2026-04-25 16:13 | 44.33434 | 133.61232 | 27433 ft | 391 kts | 217° |
| 2026-04-25 16:13 | 44.31084 | 133.59346 | 26852 ft | 386 kts | 217° |
| 2026-04-25 16:13 | 44.28777 | 133.57493 | 26282 ft | 382 kts | 217° |
| 2026-04-25 16:13 | 44.26487 | 133.55655 | 25723 ft | 377 kts | 216° |
| 2026-04-25 16:14 | 44.24213 | 133.53826 | 25167 ft | 373 kts | 216° |
| 2026-04-25 16:14 | 44.22007 | 133.52051 | 24632 ft | 370 kts | 216° |
| 2026-04-25 16:14 | 44.19757 | 133.50244 | 24085 ft | 368 kts | 216° |
| 2026-04-25 16:14 | 44.17541 | 133.48468 | 23522 ft | 366 kts | 216° |
| 2026-04-25 16:15 | 44.15343 | 133.46707 | 22962 ft | 364 kts | 216° |
| 2026-04-25 16:15 | 44.13186 | 133.44982 | 22457 ft | 360 kts | 216° |
| 2026-04-25 16:15 | 44.10992 | 133.43230 | 21982 ft | 357 kts | 215° |
| 2026-04-25 16:15 | 44.08875 | 133.41546 | 21512 ft | 354 kts | 215° |
| 2026-04-25 16:16 | 44.06748 | 133.39857 | 21075 ft | 349 kts | 215° |
| 2026-04-25 16:16 | 44.04651 | 133.38189 | 20629 ft | 346 kts | 215° |
| 2026-04-25 16:16 | 44.02568 | 133.36535 | 20213 ft | 342 kts | 215° |
| 2026-04-25 16:16 | 44.00515 | 133.34904 | 19797 ft | 338 kts | 215° |
| 2026-04-25 16:17 | 43.98479 | 133.33289 | 19394 ft | 334 kts | 215° |
| 2026-04-25 16:17 | 43.96473 | 133.31698 | 19002 ft | 329 kts | 215° |
| 2026-04-25 16:17 | 43.94500 | 133.30135 | 18607 ft | 326 kts | 215° |
| 2026-04-25 16:17 | 43.92540 | 133.28582 | 18200 ft | 323 kts | 215° |
| 2026-04-25 16:18 | 43.90597 | 133.27038 | 17763 ft | 320 kts | 216° |
| 2026-04-25 16:18 | 43.89965 | 133.26478 | 17623 ft | 318 kts | 219° |
| 2026-04-25 16:18 | 43.87350 | 133.23060 | 16872 ft | 307 kts | 235° |
| 2026-04-25 16:18 | 43.86142 | 133.20633 | 16399 ft | 304 kts | 238° |
| 2026-04-25 16:19 | 43.84964 | 133.18209 | 15981 ft | 303 kts | 238° |
| 2026-04-25 16:19 | 43.83785 | 133.15800 | 15525 ft | 301 kts | 237° |
| 2026-04-25 16:19 | 43.82612 | 133.13408 | 15060 ft | 300 kts | 238° |
| 2026-04-25 16:20 | 43.80269 | 133.08637 | 14174 ft | 299 kts | 237° |
| 2026-04-25 16:20 | 43.79098 | 133.06259 | 13710 ft | 298 kts | 237° |
| 2026-04-25 16:20 | 43.76772 | 133.01535 | 12723 ft | 295 kts | 237° |
| 2026-04-25 16:21 | 43.75619 | 132.99192 | 12245 ft | 294 kts | 237° |
| 2026-04-25 16:21 | 43.74474 | 132.96875 | 11787 ft | 290 kts | 237° |
| 2026-04-25 16:21 | 43.73344 | 132.94589 | 11322 ft | 287 kts | 236° |
| 2026-04-25 16:21 | 43.72228 | 132.92323 | 10857 ft | 285 kts | 236° |
| 2026-04-25 16:22 | 43.71118 | 132.90066 | 10554 ft | 279 kts | 236° |
| 2026-04-25 16:22 | 43.70048 | 132.87897 | 10425 ft | 267 kts | 237° |
| 2026-04-25 16:22 | 43.69018 | 132.85819 | 10286 ft | 257 kts | 237° |
| 2026-04-25 16:22 | 43.68016 | 132.83798 | 10024 ft | 253 kts | 237° |
| 2026-04-25 16:23 | 43.67026 | 132.81801 | 9806 ft | 250 kts | 236° |
| 2026-04-25 16:23 | 43.66050 | 132.79823 | 9680 ft | 250 kts | 237° |
| 2026-04-25 16:23 | 43.65139 | 132.77786 | 9548 ft | 249 kts | 240° |
| 2026-04-25 16:23 | 43.64284 | 132.75709 | 9416 ft | 248 kts | 241° |
| 2026-04-25 16:24 | 43.63448 | 132.73623 | 9285 ft | 248 kts | 242° |
| 2026-04-25 16:24 | 43.62613 | 132.71538 | 9025 ft | 248 kts | 241° |
| 2026-04-25 16:24 | 43.61777 | 132.69468 | 8707 ft | 245 kts | 241° |
| 2026-04-25 16:24 | 43.60948 | 132.67427 | 8367 ft | 242 kts | 241° |
| 2026-04-25 16:25 | 43.60124 | 132.65413 | 8058 ft | 237 kts | 242° |
| 2026-04-25 16:25 | 43.59594 | 132.64122 | 7895 ft | 232 kts | 241° |
| 2026-04-25 16:25 | 43.58510 | 132.61607 | 7497 ft | 229 kts | 237° |
| 2026-04-25 16:25 | 43.57656 | 132.59774 | 7189 ft | 225 kts | 240° |
| 2026-04-25 16:26 | 43.56884 | 132.57912 | 6883 ft | 223 kts | 242° |
| 2026-04-25 16:26 | 43.56133 | 132.56028 | 6444 ft | 225 kts | 242° |
| 2026-04-25 16:26 | 43.55383 | 132.54141 | 6110 ft | 223 kts | 242° |
| 2026-04-25 16:26 | 43.54642 | 132.52277 | 5790 ft | 219 kts | 242° |
| 2026-04-25 16:27 | 43.53919 | 132.50463 | 5488 ft | 214 kts | 242° |
| 2026-04-25 16:27 | 43.53210 | 132.48686 | 5221 ft | 206 kts | 242° |
| 2026-04-25 16:27 | 43.52530 | 132.46976 | 4954 ft | 200 kts | 242° |
| 2026-04-25 16:27 | 43.51866 | 132.45313 | 4693 ft | 195 kts | 242° |
| 2026-04-25 16:28 | 43.51217 | 132.43688 | 4424 ft | 193 kts | 240° |
| 2026-04-25 16:28 | 43.50575 | 132.42078 | 4167 ft | 191 kts | 239° |
| 2026-04-25 16:28 | 43.49945 | 132.40500 | 3897 ft | 182 kts | 239° |
| 2026-04-25 16:28 | 43.49335 | 132.38978 | 3703 ft | 184 kts | 238° |
| 2026-04-25 16:29 | 43.48715 | 132.37427 | 3437 ft | 186 kts | 236° |
| 2026-04-25 16:29 | 43.48093 | 132.35871 | 3193 ft | 184 kts | 234° |
| 2026-04-25 16:29 | 43.47486 | 132.34351 | 2940 ft | 179 kts | 234° |
| 2026-04-25 16:29 | 43.46903 | 132.32892 | 2696 ft | 168 kts | 233° |
| 2026-04-25 16:30 | 43.46353 | 132.31520 | 2467 ft | 160 kts | 234° |
| 2026-04-25 16:30 | 43.45829 | 132.30213 | 2256 ft | 151 kts | 234° |
| 2026-04-25 16:30 | 43.45336 | 132.28983 | 2053 ft | 142 kts | 233° |
| 2026-04-25 16:30 | 43.44867 | 132.27816 | 1861 ft | 136 kts | 232° |
| 2026-04-25 16:31 | 43.44429 | 132.26725 | 1687 ft | 127 kts | 231° |
| 2026-04-25 16:31 | 43.44007 | 132.25676 | 1513 ft | 124 kts | 231° |
| 2026-04-25 16:31 | 43.43590 | 132.24642 | 1343 ft | 124 kts | 231° |
| 2026-04-25 16:31 | 43.43167 | 132.23591 | 1169 ft | 126 kts | 233° |
| 2026-04-25 16:32 | 43.42744 | 132.22538 | 991 ft | 126 kts | 235° |
| 2026-04-25 16:32 | 43.42651 | 132.22307 | 960 ft | 126 kts | 234° |
| 2026-04-25 16:33 | 43.42403 | 132.21690 | 839 ft | 125 kts | 234° |
| 2026-04-25 16:33 | 43.41974 | 132.20625 | 677 ft | 128 kts | 236° |
| 2026-04-25 16:33 | 43.41541 | 132.19549 | 553 ft | 127 kts | 238° |
| 2026-04-25 16:34 | 43.41122 | 132.18475 | 325 ft | 128 kts | 237° |
| 2026-04-25 16:34 | 43.40692 | 132.17416 | 142 ft | 127 kts | 238° |
| 2026-04-25 16:34 | 43.40258 | 132.16366 | 41 ft | 125 kts | 237° |
| 2026-04-25 16:34 | 43.39882 | 132.15477 | 33 ft | 86 kts | 242° |
| 2026-04-25 16:35 | 43.39676 | 132.14934 | 32 ft | 51 kts | 242° |
| 2026-04-25 16:35 | 43.39517 | 132.14527 | 32 ft | 46 kts | 241° |
| 2026-04-25 16:35 | 43.39386 | 132.14210 | 35 ft | 21 kts | 227° |
| 2026-04-25 16:35 | 43.39255 | 132.14241 | 34 ft | 21 kts | 146° |
| 2026-04-25 16:36 | 43.39223 | 132.14399 | 32 ft | 20 kts | 60° |
| 2026-04-25 16:36 | 43.39247 | 132.14456 | 33 ft | 20 kts | 60° |
| 2026-04-25 16:36 | 43.39349 | 132.14705 | 33 ft | 21 kts | 62° |
| 2026-04-25 16:37 | 43.39388 | 132.14803 | 32 ft | 22 kts | 62° |
| 2026-04-25 16:37 | 43.39460 | 132.14987 | 32 ft | 22 kts | 61° |
| 2026-04-25 16:37 | 43.39535 | 132.15174 | 32 ft | 23 kts | 61° |
| 2026-04-25 16:37 | 43.39613 | 132.15364 | 33 ft | 23 kts | 60° |
| 2026-04-25 16:38 | 43.39692 | 132.15559 | 33 ft | 24 kts | 60° |
| 2026-04-25 16:38 | 43.39772 | 132.15760 | 33 ft | 24 kts | 62° |
| 2026-04-25 16:38 | 43.39855 | 132.15965 | 30 ft | 25 kts | 60° |
| 2026-04-25 16:38 | 43.39864 | 132.16126 | 31 ft | 17 kts | 143° |
| 2026-04-25 16:39 | 43.39777 | 132.16192 | 31 ft | 8 kts | 149° |
| 2026-04-25 16:39 | 43.39741 | 132.16246 | 33 ft | 8 kts | 102° |
| 2026-04-25 16:39 | 43.39763 | 132.16316 | 33 ft | 8 kts | 66° |
| 2026-04-25 16:39 | 43.39788 | 132.16386 | 32 ft | 9 kts | 68° |
| 2026-04-25 16:40 | 43.39762 | 132.16449 | 32 ft | 9 kts | 155° |
| 2026-04-25 16:40 | 43.39731 | 132.16472 | 33 ft | 2 kts | 152° |
| 2026-04-25 16:40 | 43.39722 | 132.16479 | 32 ft | 1 kts | 152° |
| 2026-04-25 16:40 | 43.39716 | 132.16484 | 33 ft | 0 kts | 152° |